createdAt,value
2023-05-23T00:02:15.945Z,11.60
2023-05-23T00:04:43.141Z,10.60
2023-05-23T00:07:10.745Z,11.30
2023-05-23T00:09:37.872Z,12.80
2023-05-23T00:12:05.460Z,12.90
2023-05-23T00:14:34.147Z,10.93
2023-05-23T00:17:01.801Z,11.77
2023-05-23T00:19:29.024Z,12.30
2023-05-23T00:21:58.963Z,11.90
2023-05-23T00:24:26.193Z,11.93
2023-05-23T00:26:53.433Z,11.47
2023-05-23T00:29:20.942Z,11.60
2023-05-23T00:31:48.102Z,11.97
2023-05-23T00:34:18.189Z,12.10
2023-05-23T00:36:48.384Z,11.97
2023-05-23T00:39:20.078Z,12.40
2023-05-23T00:41:52.893Z,12.40
2023-05-23T00:44:22.236Z,11.80
2023-05-23T00:46:56.638Z,11.80
2023-05-23T00:49:28.303Z,12.97
2023-05-23T00:51:55.772Z,13.10
2023-05-23T00:54:27.446Z,13.20
2023-05-23T00:56:55.522Z,12.57
2023-05-23T00:59:25.025Z,12.73
2023-05-23T01:01:53.792Z,12.80
2023-05-23T01:04:21.228Z,12.67
2023-05-23T01:06:49.634Z,13.20
2023-05-23T01:09:18.117Z,14.17
2023-05-23T01:12:14.191Z,13.13
2023-05-23T01:15:06.910Z,13.10
2023-05-23T01:18:04.886Z,12.90
2023-05-23T01:20:40.326Z,13.43
2023-05-23T01:23:46.078Z,14.20
2023-05-23T01:26:19.966Z,15.20
2023-05-23T01:28:52.143Z,13.80
2023-05-23T01:31:20.167Z,14.20
2023-05-23T01:33:50.376Z,13.60
2023-05-23T01:36:17.450Z,13.40
2023-05-23T01:38:44.528Z,13.07
2023-05-23T01:41:11.662Z,13.30
2023-05-23T01:43:39.149Z,14.20
2023-05-23T01:46:07.617Z,13.63
2023-05-23T01:48:36.060Z,13.40
2023-05-23T01:51:03.499Z,13.63
2023-05-23T01:53:32.308Z,13.90
2023-05-23T01:56:03.718Z,12.93
2023-05-23T01:58:30.933Z,13.30
2023-05-23T02:00:58.234Z,13.53
2023-05-23T02:03:25.532Z,13.90
2023-05-23T02:05:52.627Z,13.80
2023-05-23T02:08:19.642Z,14.47
2023-05-23T02:10:46.772Z,14.23
2023-05-23T02:13:13.823Z,14.53
2023-05-23T02:15:41.134Z,14.33
2023-05-23T02:18:08.480Z,13.43
2023-05-23T02:20:35.611Z,15.10
2023-05-23T02:23:02.654Z,15.27
2023-05-23T02:25:29.729Z,14.87
2023-05-23T02:27:56.838Z,14.90
2023-05-23T02:30:23.865Z,15.90
2023-05-23T02:32:51.831Z,15.90
2023-05-23T02:35:18.835Z,15.67
2023-05-23T02:37:45.866Z,15.07
2023-05-23T02:40:12.952Z,15.07
2023-05-23T02:42:40.004Z,16.77
2023-05-23T02:45:07.708Z,14.70
2023-05-23T02:47:34.855Z,15.82
2023-05-23T02:50:01.991Z,14.53
2023-05-23T02:52:29.048Z,15.65
2023-05-23T02:54:56.020Z,15.70
2023-05-23T02:57:23.062Z,15.95
2023-05-23T02:59:50.191Z,16.30
2023-05-23T03:02:17.300Z,15.73
2023-05-23T03:04:44.415Z,14.95
2023-05-23T03:07:24.524Z,16.23
2023-05-23T03:09:55.680Z,15.50
2023-05-23T03:12:22.829Z,16.65
2023-05-23T03:14:50.001Z,15.90
2023-05-23T03:17:17.110Z,15.50
2023-05-23T03:19:44.345Z,15.70
2023-05-23T03:22:11.448Z,15.90
2023-05-23T03:24:38.606Z,15.90
2023-05-23T03:27:05.978Z,16.45
2023-05-23T03:29:33.198Z,15.60
2023-05-23T03:32:00.415Z,15.38
2023-05-23T03:34:27.590Z,16.33
2023-05-23T03:36:54.756Z,16.13
2023-05-23T03:39:22.012Z,14.70
2023-05-23T03:41:49.182Z,16.10
2023-05-23T03:44:16.953Z,15.73
2023-05-23T03:46:44.336Z,15.65
2023-05-23T03:49:11.653Z,15.50
2023-05-23T03:51:38.758Z,16.42
2023-05-23T03:54:05.934Z,16.17
2023-05-23T03:56:33.095Z,15.00
2023-05-23T03:59:00.343Z,16.27
2023-05-23T04:01:28.053Z,15.93
2023-05-23T04:03:55.384Z,15.18
2023-05-23T04:06:23.441Z,14.18
2023-05-23T04:08:50.533Z,15.25
2023-05-23T04:11:18.414Z,16.88
2023-05-23T04:13:47.415Z,15.43
2023-05-23T04:16:14.640Z,15.80
2023-05-23T04:18:41.888Z,14.43
2023-05-23T04:21:09.182Z,16.83
2023-05-23T04:23:36.936Z,15.30
2023-05-23T04:26:06.011Z,16.00
2023-05-23T04:28:35.046Z,16.98
2023-05-23T04:31:03.385Z,17.67
2023-05-23T04:33:30.844Z,17.75
2023-05-23T04:35:57.860Z,16.15
2023-05-23T04:38:25.308Z,18.27
2023-05-23T04:40:52.941Z,16.25
2023-05-23T04:43:20.131Z,16.58
2023-05-23T04:45:50.070Z,15.90
2023-05-23T04:48:17.450Z,14.70
2023-05-23T04:50:47.663Z,15.38
2023-05-23T04:53:14.960Z,16.73
2023-05-23T04:55:42.180Z,13.77
2023-05-23T04:58:09.983Z,15.87
2023-05-23T05:00:37.081Z,14.15
2023-05-23T05:03:04.125Z,14.48
2023-05-23T05:05:31.198Z,13.70
2023-05-23T05:07:58.227Z,14.27
2023-05-23T05:10:25.223Z,13.43
2023-05-23T05:12:52.353Z,13.50
2023-05-23T05:15:19.804Z,13.30
2023-05-23T05:17:49.784Z,13.27
2023-05-23T05:20:17.538Z,13.80
2023-05-23T05:22:45.103Z,12.73
2023-05-23T05:25:12.121Z,15.10
2023-05-23T05:27:40.245Z,13.10
2023-05-23T05:30:09.114Z,14.13
2023-05-23T05:32:36.334Z,13.47
2023-05-23T05:35:03.961Z,13.77
2023-05-23T05:37:31.153Z,13.40
2023-05-23T05:39:59.339Z,13.00
2023-05-23T05:42:26.386Z,13.37
2023-05-23T05:44:53.411Z,13.00
2023-05-23T05:47:20.637Z,13.77
2023-05-23T05:49:47.665Z,13.07
2023-05-23T05:52:14.692Z,14.50
2023-05-23T05:54:41.686Z,14.57
2023-05-23T05:57:08.808Z,12.90
2023-05-23T05:59:35.906Z,13.80
2023-05-23T06:02:02.942Z,13.67
2023-05-23T06:04:30.033Z,13.70
2023-05-23T06:06:57.163Z,14.30
2023-05-23T06:09:24.229Z,13.93
2023-05-23T06:11:51.389Z,12.07
2023-05-23T06:14:18.480Z,11.77
2023-05-23T06:16:46.223Z,12.20
2023-05-23T06:19:13.510Z,12.30
2023-05-23T06:21:40.874Z,13.30
2023-05-23T06:24:07.997Z,13.70
2023-05-23T06:26:35.310Z,12.30
2023-05-23T06:29:02.416Z,13.63
2023-05-23T06:31:29.899Z,12.30
2023-05-23T06:33:57.115Z,12.93
2023-05-23T06:36:24.197Z,13.13
2023-05-23T06:38:51.257Z,12.97
2023-05-23T06:41:18.464Z,13.50
2023-05-23T06:43:45.546Z,12.93
2023-05-23T06:46:12.688Z,13.83
2023-05-23T06:48:39.797Z,13.60
2023-05-23T06:51:07.169Z,13.90
2023-05-23T06:53:34.239Z,13.27
2023-05-23T06:56:01.493Z,14.40
2023-05-23T06:58:29.619Z,14.10
2023-05-23T07:00:56.952Z,15.20
2023-05-23T07:03:24.109Z,14.97
2023-05-23T07:05:52.020Z,14.93
2023-05-23T07:08:19.424Z,14.97
2023-05-23T07:10:46.658Z,14.30
2023-05-23T07:13:13.803Z,13.87
2023-05-23T07:15:41.229Z,15.43
2023-05-23T07:18:08.459Z,14.63
2023-05-23T07:20:35.775Z,15.10
2023-05-23T07:23:02.980Z,15.50
2023-05-23T07:25:30.119Z,16.57
2023-05-23T07:27:57.184Z,21.33
2023-05-23T07:30:24.559Z,13.23
2023-05-23T07:32:52.689Z,13.60
2023-05-23T07:35:24.289Z,14.10
2023-05-23T07:37:52.020Z,13.80
2023-05-23T07:40:19.560Z,12.53
2023-05-23T07:42:46.960Z,14.10
2023-05-23T07:45:14.635Z,14.73
2023-05-23T07:47:42.309Z,14.17
2023-05-23T07:50:09.715Z,12.60
2023-05-23T07:52:36.854Z,12.80
2023-05-23T07:55:04.125Z,12.47
2023-05-23T07:57:31.918Z,12.20
2023-05-23T07:59:59.026Z,13.00
2023-05-23T08:02:26.244Z,12.60
2023-05-23T08:04:53.718Z,12.63
2023-05-23T08:07:22.022Z,12.40
2023-05-23T08:09:49.210Z,13.10
2023-05-23T08:12:16.358Z,12.60
2023-05-23T08:17:16.813Z,12.33
2023-05-23T08:19:44.099Z,12.50
2023-05-23T08:22:11.167Z,12.87
2023-05-23T08:24:38.241Z,12.80
2023-05-23T08:27:06.853Z,13.10
2023-05-23T08:29:35.383Z,11.90
2023-05-23T08:32:02.616Z,12.30
2023-05-23T08:34:29.851Z,12.53
2023-05-23T08:36:57.041Z,13.00
2023-05-23T08:39:24.138Z,12.77
2023-05-23T08:41:52.406Z,13.00
2023-05-23T08:44:19.479Z,12.70
2023-05-23T08:46:50.090Z,11.97
2023-05-23T08:49:22.872Z,12.70
2023-05-23T08:51:56.432Z,13.00
2023-05-23T08:54:23.676Z,12.50
2023-05-23T08:56:52.521Z,11.97
2023-05-23T08:59:20.452Z,13.47
2023-05-23T09:01:48.872Z,11.97
2023-05-23T09:04:16.184Z,14.07
2023-05-23T09:06:43.298Z,13.47
2023-05-23T09:09:10.452Z,13.83
2023-05-23T09:11:37.889Z,13.63
2023-05-23T09:14:05.441Z,12.13
2023-05-23T09:16:36.897Z,13.23
2023-05-23T09:19:15.039Z,12.90
2023-05-23T09:21:45.878Z,13.50
2023-05-23T09:24:13.393Z,13.17
2023-05-23T09:26:40.518Z,14.20
2023-05-23T09:29:08.114Z,12.43
2023-05-23T09:31:35.263Z,13.70
2023-05-23T09:34:02.504Z,13.50
2023-05-23T09:36:35.413Z,13.97
2023-05-23T09:39:05.886Z,12.90
2023-05-23T09:41:36.176Z,13.10
2023-05-23T09:44:09.125Z,13.90
2023-05-23T09:46:38.623Z,13.27
2023-05-23T09:49:17.426Z,12.40
2023-05-23T09:51:44.886Z,13.33
2023-05-23T09:54:11.945Z,13.20
2023-05-23T09:56:44.180Z,13.67
2023-05-23T09:59:14.442Z,13.20
2023-05-23T10:01:45.184Z,13.60
2023-05-23T10:04:14.591Z,13.67
2023-05-23T10:06:43.260Z,13.00
2023-05-23T10:09:17.768Z,15.07
2023-05-23T10:12:05.926Z,13.30
2023-05-23T10:14:35.722Z,14.00
2023-05-23T10:17:13.779Z,12.30
2023-05-23T10:19:55.200Z,14.17
2023-05-23T10:22:23.587Z,14.20
2023-05-23T10:24:51.198Z,15.07
2023-05-23T10:27:19.350Z,13.93
2023-05-23T10:29:47.101Z,13.40
2023-05-23T10:32:15.978Z,13.00
2023-05-23T10:34:56.753Z,13.50
2023-05-23T10:38:02.043Z,12.93
2023-05-23T10:40:55.399Z,12.60
2023-05-23T10:43:25.496Z,12.10
2023-05-23T10:45:53.271Z,12.30
2023-05-23T10:48:29.568Z,13.27
2023-05-23T10:51:10.887Z,12.23
2023-05-23T10:53:40.698Z,11.50
2023-05-23T10:56:24.827Z,10.30
2023-05-23T10:58:56.357Z,11.20
2023-05-23T11:01:24.437Z,10.97
2023-05-23T11:03:55.278Z,10.87
2023-05-23T11:06:45.637Z,10.40
2023-05-23T11:09:19.042Z,11.10
2023-05-23T11:11:54.926Z,11.70
2023-05-23T11:14:38.410Z,11.33
2023-05-23T11:17:34.665Z,11.10
2023-05-23T11:20:07.442Z,13.23
2023-05-23T11:22:36.655Z,13.60
2023-05-23T11:25:10.573Z,13.00
2023-05-23T11:27:39.637Z,12.80
2023-05-23T11:30:16.016Z,13.70
2023-05-23T11:32:53.217Z,13.30
2023-05-23T11:35:21.558Z,13.00
2023-05-23T11:37:49.218Z,13.07
2023-05-23T11:40:35.935Z,13.17
2023-05-23T11:43:06.241Z,11.93
2023-05-23T11:45:35.130Z,12.20
2023-05-23T11:48:09.949Z,12.03
2023-05-23T11:50:46.254Z,10.70
2023-05-23T11:53:17.642Z,12.40
2023-05-23T11:56:02.108Z,12.27
2023-05-23T11:58:37.574Z,12.20
2023-05-23T12:01:07.391Z,11.80
2023-05-23T12:03:35.796Z,11.17
2023-05-23T12:06:03.210Z,12.27
2023-05-23T12:08:30.274Z,12.70
2023-05-23T12:10:59.360Z,10.97
2023-05-23T12:13:28.998Z,13.20
2023-05-23T12:15:57.543Z,12.80
2023-05-23T12:18:29.957Z,12.57
2023-05-23T12:21:04.050Z,10.80
2023-05-23T12:23:33.867Z,12.40
2023-05-23T12:26:05.788Z,12.53
2023-05-23T12:28:45.017Z,13.20
2023-05-23T12:31:19.696Z,12.43
2023-05-23T12:33:49.074Z,12.97
2023-05-23T12:36:23.529Z,13.40
2023-05-23T12:38:50.748Z,12.80
2023-05-23T12:41:20.299Z,13.10
2023-05-23T12:43:52.547Z,14.10
2023-05-23T12:46:24.599Z,14.27
2023-05-23T12:48:51.992Z,14.30
2023-05-23T12:51:19.696Z,14.40
2023-05-23T12:53:47.028Z,13.40
2023-05-23T12:56:14.179Z,14.40
2023-05-23T12:58:41.254Z,14.10
2023-05-23T13:01:08.361Z,13.97
2023-05-23T13:03:35.539Z,14.10
2023-05-23T13:06:03.608Z,14.83
2023-05-23T13:08:30.710Z,13.20
2023-05-23T13:10:57.964Z,14.70
2023-05-23T13:13:26.067Z,14.20
2023-05-23T13:15:53.165Z,14.43
2023-05-23T13:18:20.408Z,14.37
2023-05-23T13:20:47.477Z,14.97
2023-05-23T13:23:14.751Z,15.03
2023-05-23T13:25:42.015Z,14.17
2023-05-23T13:28:10.017Z,13.63
2023-05-23T13:30:37.009Z,9.40
2023-05-23T13:33:05.185Z,8.87
2023-05-23T13:35:32.409Z,6.30
2023-05-23T13:37:59.512Z,5.97
2023-05-23T13:40:26.603Z,5.80
2023-05-23T13:42:53.931Z,5.67
2023-05-23T13:45:22.943Z,6.63
2023-05-23T13:47:50.300Z,5.53
2023-05-23T13:50:17.861Z,5.60
2023-05-23T13:52:48.302Z,5.90
2023-05-23T13:55:16.524Z,5.63
2023-05-23T13:57:43.636Z,5.93
2023-05-23T14:00:11.616Z,6.70
2023-05-23T14:02:38.793Z,7.90
2023-05-23T14:05:07.515Z,8.70
2023-05-23T14:07:34.694Z,8.27
2023-05-23T14:10:01.840Z,8.60
2023-05-23T14:12:28.981Z,9.30
2023-05-23T14:14:56.110Z,9.40
2023-05-23T14:17:24.093Z,9.60
2023-05-23T14:19:51.475Z,9.10
2023-05-23T14:22:18.648Z,9.30
2023-05-23T14:24:45.745Z,9.23
2023-05-23T14:27:12.852Z,9.20
2023-05-23T14:29:39.939Z,9.40
2023-05-23T14:32:07.277Z,9.50
2023-05-23T14:34:34.377Z,9.47
2023-05-23T14:37:01.534Z,9.47
2023-05-23T14:39:29.351Z,8.67
2023-05-23T14:41:56.735Z,8.70
2023-05-23T14:44:23.975Z,8.87
2023-05-23T14:46:51.341Z,8.10
2023-05-23T14:49:18.469Z,9.00
2023-05-23T14:51:50.744Z,7.57
2023-05-23T14:54:19.752Z,7.80
2023-05-23T14:56:47.013Z,8.30
2023-05-23T14:59:14.245Z,7.60
2023-05-23T15:01:41.915Z,7.80
2023-05-23T15:04:09.800Z,7.23
2023-05-23T15:06:38.721Z,6.77
2023-05-23T15:09:06.225Z,6.40
2023-05-23T15:11:35.153Z,6.60
2023-05-23T15:14:02.414Z,6.70
2023-05-23T15:16:33.322Z,7.20
2023-05-23T15:19:01.055Z,6.60
2023-05-23T15:21:28.302Z,9.27
2023-05-23T15:23:55.912Z,8.97
2023-05-23T15:26:22.997Z,10.00
2023-05-23T15:28:50.083Z,9.73
2023-05-23T15:31:17.161Z,11.03
2023-05-23T15:33:44.239Z,10.53
2023-05-23T15:36:13.437Z,9.83
2023-05-23T15:38:40.673Z,10.30
2023-05-23T15:41:07.707Z,11.43
2023-05-23T15:43:35.720Z,10.30
2023-05-23T15:46:03.217Z,10.33
2023-05-23T15:48:30.548Z,11.13
2023-05-23T15:50:57.567Z,9.60
2023-05-23T15:53:24.660Z,9.70
2023-05-23T15:55:51.960Z,9.10
2023-05-23T15:58:19.098Z,9.60
2023-05-23T16:00:46.151Z,9.10
2023-05-23T16:03:13.345Z,9.53
2023-05-23T16:05:40.709Z,9.10
2023-05-23T16:08:08.051Z,8.93
2023-05-23T16:10:35.135Z,8.57
2023-05-23T16:13:02.447Z,8.20
2023-05-23T16:15:29.501Z,9.40
2023-05-23T16:17:56.556Z,8.47
2023-05-23T16:20:23.676Z,9.00
2023-05-23T16:22:50.851Z,7.80
2023-05-23T16:25:18.034Z,8.27
2023-05-23T16:27:45.071Z,9.10
2023-05-23T16:30:12.327Z,8.13
2023-05-23T16:32:39.513Z,8.50
2023-05-23T16:35:07.184Z,8.20
2023-05-23T16:37:34.338Z,8.60
2023-05-23T16:40:01.539Z,7.70
2023-05-23T16:42:28.636Z,9.00
2023-05-23T16:44:55.878Z,8.77
2023-05-23T16:47:23.053Z,9.00
2023-05-23T16:49:50.417Z,8.40
2023-05-23T16:52:18.518Z,8.47
2023-05-23T16:54:46.110Z,8.73
2023-05-23T16:57:13.274Z,8.73
2023-05-23T16:59:41.343Z,8.87
2023-05-23T17:02:11.725Z,8.97
2023-05-23T17:04:38.858Z,9.47
2023-05-23T17:07:06.530Z,8.47
2023-05-23T17:09:33.626Z,8.77
2023-05-23T17:12:00.674Z,9.33
2023-05-23T17:14:27.727Z,8.60
2023-05-23T17:16:54.907Z,9.43
2023-05-23T17:19:22.345Z,8.00
2023-05-23T17:21:49.772Z,7.73
2023-05-23T17:24:16.886Z,8.03
2023-05-23T17:26:43.988Z,8.60
2023-05-23T17:29:13.980Z,7.73
2023-05-23T17:31:41.460Z,7.93
2023-05-23T17:34:09.391Z,8.20
2023-05-23T17:36:36.488Z,8.10
2023-05-23T17:39:03.705Z,7.43
2023-05-23T17:41:30.985Z,8.50
2023-05-23T17:43:58.020Z,8.27
2023-05-23T17:46:25.139Z,8.23
2023-05-23T17:48:52.293Z,7.83
2023-05-23T17:51:19.507Z,8.60
2023-05-23T17:53:51.713Z,7.80
2023-05-23T17:56:18.931Z,8.00
2023-05-23T17:58:46.194Z,8.10
2023-05-23T18:01:13.786Z,8.80
2023-05-23T18:03:40.995Z,9.27
2023-05-23T18:06:08.441Z,8.83
2023-05-23T18:08:35.519Z,9.50
2023-05-23T18:11:02.689Z,9.07
2023-05-23T18:13:29.792Z,8.90
2023-05-23T18:15:56.898Z,9.80
2023-05-23T18:18:24.019Z,9.10
2023-05-23T18:20:51.119Z,9.60
2023-05-23T18:23:18.605Z,9.87
2023-05-23T18:25:45.639Z,10.10
2023-05-23T18:28:12.631Z,9.70
2023-05-23T18:30:39.949Z,10.10
2023-05-23T18:33:07.461Z,10.77
2023-05-23T18:35:34.774Z,9.77
2023-05-23T18:38:01.872Z,10.70
2023-05-23T18:40:29.107Z,10.63
2023-05-23T18:42:56.165Z,11.43
2023-05-23T18:45:23.248Z,11.00
2023-05-23T18:47:50.472Z,11.30
2023-05-23T18:50:17.677Z,12.00
2023-05-23T18:52:44.721Z,11.63
2023-05-23T18:55:11.886Z,12.17
2023-05-23T18:57:39.002Z,12.03
2023-05-23T19:00:09.212Z,12.90
2023-05-23T19:02:36.429Z,11.83
2023-05-23T19:05:03.759Z,12.10
2023-05-23T19:07:31.020Z,13.20
2023-05-23T19:09:58.411Z,12.50
2023-05-23T19:12:25.718Z,13.17
2023-05-23T19:14:53.058Z,13.93
2023-05-23T19:17:20.130Z,13.70
2023-05-23T19:19:47.221Z,13.80
2023-05-23T19:22:14.355Z,12.57
2023-05-23T19:24:41.925Z,14.00
2023-05-23T19:27:09.184Z,12.87
2023-05-23T19:29:36.282Z,13.27
2023-05-23T19:32:03.465Z,12.23
2023-05-23T19:34:31.037Z,13.30
2023-05-23T19:36:58.256Z,13.80
2023-05-23T19:39:25.382Z,13.40
2023-05-23T19:41:52.524Z,12.60
2023-05-23T19:44:20.048Z,12.40
2023-05-23T19:46:47.108Z,12.13
2023-05-23T19:49:15.316Z,13.20
2023-05-23T19:51:42.480Z,12.80
2023-05-23T19:54:09.688Z,13.27
2023-05-23T19:56:36.977Z,12.90
2023-05-23T19:59:04.206Z,12.53
2023-05-23T20:01:33.831Z,12.90
2023-05-23T20:04:01.213Z,12.40
2023-05-23T20:06:28.306Z,15.10
2023-05-23T20:08:55.525Z,13.57
2023-05-23T20:11:22.962Z,12.57
2023-05-23T20:13:49.969Z,13.93
2023-05-23T20:16:17.659Z,12.53
2023-05-23T20:18:44.706Z,13.17
2023-05-23T20:21:12.066Z,11.60
2023-05-23T20:23:41.182Z,13.27
2023-05-23T20:26:09.805Z,12.07
2023-05-23T20:28:37.950Z,12.27
2023-05-23T20:31:05.149Z,13.43
2023-05-23T20:33:34.462Z,14.70
2023-05-23T20:36:01.843Z,13.00
2023-05-23T20:38:29.163Z,13.40
2023-05-23T20:40:56.130Z,12.20
2023-05-23T20:43:23.876Z,12.30
2023-05-23T20:45:50.994Z,10.93
2023-05-23T20:48:18.094Z,13.47
2023-05-23T20:50:45.711Z,12.90
2023-05-23T20:53:12.757Z,13.27
2023-05-23T20:55:40.039Z,13.00
2023-05-23T20:58:07.357Z,12.90
2023-05-23T21:00:34.479Z,14.00
2023-05-23T21:03:02.403Z,12.20
2023-05-23T21:05:29.639Z,13.30
2023-05-23T21:07:56.632Z,12.87
2023-05-23T21:10:23.716Z,12.80
2023-05-23T21:12:51.070Z,14.20
2023-05-23T21:15:19.167Z,13.70
2023-05-23T21:17:46.447Z,14.67
2023-05-23T21:20:13.979Z,12.73
2023-05-23T21:22:41.401Z,13.27
2023-05-23T21:25:08.868Z,14.20
2023-05-23T21:27:35.989Z,12.80
2023-05-23T21:30:04.561Z,12.60
2023-05-23T21:32:31.546Z,13.53
2023-05-23T21:34:58.726Z,14.27
2023-05-23T21:37:26.099Z,13.10
2023-05-23T21:39:53.236Z,14.47
2023-05-23T21:42:21.284Z,12.60
2023-05-23T21:44:48.451Z,13.63
2023-05-23T21:47:15.675Z,14.10
2023-05-23T21:49:42.958Z,13.53
2023-05-23T21:52:10.087Z,13.77
2023-05-23T21:54:37.215Z,14.90
2023-05-23T21:57:04.453Z,13.80
2023-05-23T21:59:31.471Z,14.40
2023-05-23T22:01:58.718Z,14.60
2023-05-23T22:04:26.051Z,13.70
2023-05-23T22:06:53.240Z,12.50
2023-05-23T22:09:20.377Z,11.60
2023-05-23T22:11:47.573Z,11.70
2023-05-23T22:14:14.699Z,11.50
2023-05-23T22:16:41.859Z,11.00
2023-05-23T22:19:10.415Z,11.33
2023-05-23T22:21:37.660Z,10.83
2023-05-23T22:24:05.209Z,10.80
2023-05-23T22:26:32.400Z,10.00
2023-05-23T22:28:59.553Z,10.33
2023-05-23T22:31:26.727Z,9.90
2023-05-23T22:33:53.869Z,9.53
2023-05-23T22:36:24.472Z,10.10
2023-05-23T22:38:51.644Z,9.67
2023-05-23T22:41:18.933Z,8.70
2023-05-23T22:43:47.111Z,8.30
2023-05-23T22:46:14.475Z,8.87
2023-05-23T22:48:41.615Z,7.67
2023-05-23T22:51:09.885Z,8.70
2023-05-23T22:53:36.921Z,9.17
2023-05-23T22:56:04.118Z,8.60
2023-05-23T22:58:31.449Z,8.33
2023-05-23T23:00:58.495Z,9.40
2023-05-23T23:03:25.587Z,9.47
2023-05-23T23:05:52.696Z,7.70
2023-05-23T23:08:19.741Z,7.83
2023-05-23T23:10:47.049Z,7.90
2023-05-23T23:13:14.288Z,7.57
2023-05-23T23:15:42.897Z,6.93
2023-05-23T23:18:10.593Z,7.27
2023-05-23T23:20:39.026Z,6.27
2023-05-23T23:23:06.414Z,6.00
2023-05-23T23:25:33.658Z,6.27
2023-05-23T23:28:01.001Z,5.70
2023-05-23T23:30:28.429Z,5.10
2023-05-23T23:32:55.657Z,5.80
2023-05-23T23:35:22.855Z,5.20
2023-05-23T23:37:49.994Z,4.90
2023-05-23T23:40:17.078Z,4.80
2023-05-23T23:42:44.127Z,5.37
2023-05-23T23:45:11.527Z,4.80
2023-05-23T23:47:38.624Z,4.80
2023-05-23T23:50:06.920Z,4.80
2023-05-23T23:52:34.072Z,4.93
2023-05-23T23:55:01.515Z,5.57
2023-05-23T23:57:28.583Z,4.57
2023-05-23T23:59:55.709Z,4.70
